Woodward Field

About
Name: Woodward Field
Identifier:  CDN/KCDN
Local Time:  18. Aug 08:49 EDT
Location
Flights per Day
0 flights
Distance: 672km (417mi)
Punctuality
0% (0 flights per day delayed)
Delay Average: 28 minutes
Current Weather
 23 C (Humidity: 100%)
  0kt (0km/h / 0mph) from 0°
  Overcast at 300 feet (91 meter)
  0km (0 mi.)
 Fog
 METAR KCDN 181235Z AUTO 00000KT 1/2SM FG OVC003 23/23 A3005 RMK AO2

Current Flights

Departures
Number Departure To Airline
Arrivals
Number Arrival From Airline

Current Delays

Departures
N/A
Arrivals
N/A

Destinations

Top Destinations
Airport Flights
per week
Seats
per week
  Burlington (QQY) 0 - 0 0
  Greensboro (GSO) 0 - 0 0
  Kissimmee (ISM) 0 - 0 0

Airlines & Planes

Top Airlines
Airline Flights
per Day
Seats
per Day
  Flybe Nordic 0 -
Nordwind Airlines 0 -
  Novair 0 -
Top Plane Types
Model Flights Seats
Beech B200 Super King Air 0.1/day - 0
Piper PA-32R-301T Saratoga II 0.0/day - 0